sensor_id;sensor_type;location;lat;lon;timestamp;P1;durP1;ratioP1;P2;durP2;ratioP2
3573;SDS011;1801;51.050;6.246;2023-04-24T00:01:25;1.70;;;1.60;;
3573;SDS011;1801;51.050;6.246;2023-04-24T00:03:50;6.57;;;2.43;;
3573;SDS011;1801;51.050;6.246;2023-04-24T00:06:16;2.63;;;2.20;;
3573;SDS011;1801;51.050;6.246;2023-04-24T00:08:41;3.07;;;2.37;;
3573;SDS011;1801;51.050;6.246;2023-04-24T00:11:07;3.13;;;2.10;;
3573;SDS011;1801;51.050;6.246;2023-04-24T00:13:34;5.63;;;1.73;;
3573;SDS011;1801;51.050;6.246;2023-04-24T00:15:59;4.30;;;2.20;;
3573;SDS011;1801;51.050;6.246;2023-04-24T00:18:24;2.37;;;2.17;;
3573;SDS011;1801;51.050;6.246;2023-04-24T00:20:49;2.50;;;1.63;;
3573;SDS011;1801;51.050;6.246;2023-04-24T00:23:15;3.37;;;2.00;;
3573;SDS011;1801;51.050;6.246;2023-04-24T00:25:40;2.53;;;2.33;;
3573;SDS011;1801;51.050;6.246;2023-04-24T00:28:05;3.20;;;2.50;;
3573;SDS011;1801;51.050;6.246;2023-04-24T00:30:30;4.87;;;2.10;;
3573;SDS011;1801;51.050;6.246;2023-04-24T00:32:56;4.10;;;2.27;;
3573;SDS011;1801;51.050;6.246;2023-04-24T00:35:21;5.13;;;2.77;;
3573;SDS011;1801;51.050;6.246;2023-04-24T00:37:46;5.50;;;2.60;;
3573;SDS011;1801;51.050;6.246;2023-04-24T00:40:12;6.27;;;3.30;;
3573;SDS011;1801;51.050;6.246;2023-04-24T00:42:38;3.53;;;2.63;;
3573;SDS011;1801;51.050;6.246;2023-04-24T00:45:03;6.50;;;3.53;;
3573;SDS011;1801;51.050;6.246;2023-04-24T00:47:29;8.03;;;4.10;;
3573;SDS011;1801;51.050;6.246;2023-04-24T00:49:55;6.20;;;3.30;;
3573;SDS011;1801;51.050;6.246;2023-04-24T00:52:20;4.80;;;3.10;;
3573;SDS011;1801;51.050;6.246;2023-04-24T00:54:45;12.00;;;4.27;;
3573;SDS011;1801;51.050;6.246;2023-04-24T00:57:10;7.20;;;3.53;;
3573;SDS011;1801;51.050;6.246;2023-04-24T00:59:35;11.10;;;5.03;;
3573;SDS011;1801;51.050;6.246;2023-04-24T01:02:01;14.43;;;5.10;;
3573;SDS011;1801;51.050;6.246;2023-04-24T01:04:26;13.13;;;5.97;;
3573;SDS011;1801;51.050;6.246;2023-04-24T01:06:52;13.80;;;5.67;;
3573;SDS011;1801;51.050;6.246;2023-04-24T01:09:17;12.50;;;6.50;;
3573;SDS011;1801;51.050;6.246;2023-04-24T01:11:43;10.80;;;4.03;;
3573;SDS011;1801;51.050;6.246;2023-04-24T01:14:08;9.27;;;4.30;;
3573;SDS011;1801;51.050;6.246;2023-04-24T01:16:33;9.73;;;5.47;;
3573;SDS011;1801;51.050;6.246;2023-04-24T01:18:59;12.60;;;5.53;;
3573;SDS011;1801;51.050;6.246;2023-04-24T01:21:24;12.90;;;5.17;;
3573;SDS011;1801;51.050;6.246;2023-04-24T01:23:52;16.40;;;5.88;;
3573;SDS011;1801;51.050;6.246;2023-04-24T01:26:17;13.43;;;5.20;;
3573;SDS011;1801;51.050;6.246;2023-04-24T01:28:45;14.00;;;6.37;;
3573;SDS011;1801;51.050;6.246;2023-04-24T01:31:10;10.70;;;5.93;;
3573;SDS011;1801;51.050;6.246;2023-04-24T01:33:35;13.77;;;6.63;;
3573;SDS011;1801;51.050;6.246;2023-04-24T01:36:00;12.63;;;6.33;;
3573;SDS011;1801;51.050;6.246;2023-04-24T01:38:26;10.83;;;5.63;;
3573;SDS011;1801;51.050;6.246;2023-04-24T01:40:51;17.30;;;7.27;;
3573;SDS011;1801;51.050;6.246;2023-04-24T01:43:17;14.93;;;7.70;;
3573;SDS011;1801;51.050;6.246;2023-04-24T01:45:43;17.33;;;7.00;;
3573;SDS011;1801;51.050;6.246;2023-04-24T01:48:08;13.97;;;7.80;;
3573;SDS011;1801;51.050;6.246;2023-04-24T01:50:33;17.07;;;8.57;;
3573;SDS011;1801;51.050;6.246;2023-04-24T01:52:58;11.67;;;5.77;;
3573;SDS011;1801;51.050;6.246;2023-04-24T01:55:24;26.13;;;8.57;;
3573;SDS011;1801;51.050;6.246;2023-04-24T01:57:49;23.83;;;8.87;;
3573;SDS011;1801;51.050;6.246;2023-04-24T02:00:14;25.90;;;10.17;;
3573;SDS011;1801;51.050;6.246;2023-04-24T02:02:40;23.57;;;9.73;;
3573;SDS011;1801;51.050;6.246;2023-04-24T02:05:06;23.40;;;9.67;;
3573;SDS011;1801;51.050;6.246;2023-04-24T02:07:31;20.27;;;8.23;;
3573;SDS011;1801;51.050;6.246;2023-04-24T02:09:57;13.93;;;6.40;;
3573;SDS011;1801;51.050;6.246;2023-04-24T02:12:22;21.33;;;9.33;;
3573;SDS011;1801;51.050;6.246;2023-04-24T02:14:48;14.90;;;8.70;;
3573;SDS011;1801;51.050;6.246;2023-04-24T02:17:13;23.90;;;8.37;;
3573;SDS011;1801;51.050;6.246;2023-04-24T02:19:40;20.27;;;8.33;;
3573;SDS011;1801;51.050;6.246;2023-04-24T02:22:05;14.80;;;7.87;;
3573;SDS011;1801;51.050;6.246;2023-04-24T02:24:30;15.63;;;7.37;;
3573;SDS011;1801;51.050;6.246;2023-04-24T02:26:56;24.23;;;12.13;;
3573;SDS011;1801;51.050;6.246;2023-04-24T02:29:21;14.50;;;7.10;;
3573;SDS011;1801;51.050;6.246;2023-04-24T02:31:46;15.00;;;7.90;;
3573;SDS011;1801;51.050;6.246;2023-04-24T02:34:11;13.30;;;7.40;;
3573;SDS011;1801;51.050;6.246;2023-04-24T02:36:36;25.87;;;8.30;;
3573;SDS011;1801;51.050;6.246;2023-04-24T02:39:02;12.80;;;7.90;;
3573;SDS011;1801;51.050;6.246;2023-04-24T02:41:28;11.97;;;6.60;;
3573;SDS011;1801;51.050;6.246;2023-04-24T02:43:56;13.23;;;6.50;;
3573;SDS011;1801;51.050;6.246;2023-04-24T02:46:22;19.50;;;8.33;;
3573;SDS011;1801;51.050;6.246;2023-04-24T02:48:47;21.50;;;8.80;;
3573;SDS011;1801;51.050;6.246;2023-04-24T02:51:12;17.33;;;8.17;;
3573;SDS011;1801;51.050;6.246;2023-04-24T02:53:37;22.23;;;8.10;;
3573;SDS011;1801;51.050;6.246;2023-04-24T02:56:02;20.03;;;8.83;;
3573;SDS011;1801;51.050;6.246;2023-04-24T02:58:28;19.17;;;8.13;;
3573;SDS011;1801;51.050;6.246;2023-04-24T03:00:53;15.70;;;9.07;;
3573;SDS011;1801;51.050;6.246;2023-04-24T03:03:19;14.70;;;7.33;;
3573;SDS011;1801;51.050;6.246;2023-04-24T03:05:45;13.07;;;6.70;;
3573;SDS011;1801;51.050;6.246;2023-04-24T03:08:10;15.30;;;7.57;;
3573;SDS011;1801;51.050;6.246;2023-04-24T03:10:35;13.53;;;7.53;;
3573;SDS011;1801;51.050;6.246;2023-04-24T03:13:01;19.70;;;8.53;;
3573;SDS011;1801;51.050;6.246;2023-04-24T03:15:26;20.20;;;9.90;;
3573;SDS011;1801;51.050;6.246;2023-04-24T03:17:51;16.67;;;9.30;;
3573;SDS011;1801;51.050;6.246;2023-04-24T03:20:17;20.53;;;9.93;;
3573;SDS011;1801;51.050;6.246;2023-04-24T03:22:42;15.97;;;7.70;;
3573;SDS011;1801;51.050;6.246;2023-04-24T03:25:07;14.97;;;8.70;;
3573;SDS011;1801;51.050;6.246;2023-04-24T03:27:36;21.37;;;8.50;;
3573;SDS011;1801;51.050;6.246;2023-04-24T03:30:01;23.50;;;9.50;;
3573;SDS011;1801;51.050;6.246;2023-04-24T03:32:27;17.43;;;6.67;;
3573;SDS011;1801;51.050;6.246;2023-04-24T03:34:52;16.23;;;7.73;;
3573;SDS011;1801;51.050;6.246;2023-04-24T03:37:17;17.87;;;8.27;;
3573;SDS011;1801;51.050;6.246;2023-04-24T03:39:42;17.13;;;8.10;;
3573;SDS011;1801;51.050;6.246;2023-04-24T03:42:07;19.57;;;10.37;;
3573;SDS011;1801;51.050;6.246;2023-04-24T03:44:33;13.80;;;7.83;;
3573;SDS011;1801;51.050;6.246;2023-04-24T03:46:58;14.87;;;8.30;;
3573;SDS011;1801;51.050;6.246;2023-04-24T03:49:23;14.40;;;7.53;;
3573;SDS011;1801;51.050;6.246;2023-04-24T03:51:49;10.80;;;5.63;;
3573;SDS011;1801;51.050;6.246;2023-04-24T03:54:14;19.67;;;9.60;;
3573;SDS011;1801;51.050;6.246;2023-04-24T03:56:39;14.87;;;8.40;;
3573;SDS011;1801;51.050;6.246;2023-04-24T03:59:04;9.47;;;5.93;;
3573;SDS011;1801;51.050;6.246;2023-04-24T04:01:30;12.50;;;7.07;;
3573;SDS011;1801;51.050;6.246;2023-04-24T04:03:55;15.83;;;7.27;;
3573;SDS011;1801;51.050;6.246;2023-04-24T04:06:20;20.93;;;7.40;;
3573;SDS011;1801;51.050;6.246;2023-04-24T04:08:46;15.60;;;6.17;;
3573;SDS011;1801;51.050;6.246;2023-04-24T04:11:11;13.40;;;6.67;;
3573;SDS011;1801;51.050;6.246;2023-04-24T04:13:37;14.87;;;6.33;;
3573;SDS011;1801;51.050;6.246;2023-04-24T04:16:02;12.23;;;8.30;;
3573;SDS011;1801;51.050;6.246;2023-04-24T04:18:27;11.83;;;5.83;;
3573;SDS011;1801;51.050;6.246;2023-04-24T04:20:52;11.30;;;5.40;;
3573;SDS011;1801;51.050;6.246;2023-04-24T04:23:17;16.27;;;8.40;;
3573;SDS011;1801;51.050;6.246;2023-04-24T04:25:43;17.03;;;6.23;;
3573;SDS011;1801;51.050;6.246;2023-04-24T04:28:08;12.33;;;7.27;;
3573;SDS011;1801;51.050;6.246;2023-04-24T04:30:33;13.43;;;8.00;;
3573;SDS011;1801;51.050;6.246;2023-04-24T04:32:58;10.50;;;6.37;;
3573;SDS011;1801;51.050;6.246;2023-04-24T04:35:24;10.67;;;6.63;;
3573;SDS011;1801;51.050;6.246;2023-04-24T04:37:49;13.57;;;7.43;;
3573;SDS011;1801;51.050;6.246;2023-04-24T04:40:16;18.10;;;6.90;;
3573;SDS011;1801;51.050;6.246;2023-04-24T04:42:41;14.70;;;7.60;;
3573;SDS011;1801;51.050;6.246;2023-04-24T04:45:07;19.30;;;8.57;;
3573;SDS011;1801;51.050;6.246;2023-04-24T04:47:36;11.17;;;6.10;;
3573;SDS011;1801;51.050;6.246;2023-04-24T04:50:02;12.00;;;6.03;;
3573;SDS011;1801;51.050;6.246;2023-04-24T04:52:28;15.70;;;7.30;;
3573;SDS011;1801;51.050;6.246;2023-04-24T04:54:53;8.90;;;5.67;;
3573;SDS011;1801;51.050;6.246;2023-04-24T04:57:19;19.20;;;7.00;;
3573;SDS011;1801;51.050;6.246;2023-04-24T04:59:45;16.27;;;7.20;;
3573;SDS011;1801;51.050;6.246;2023-04-24T05:02:10;16.83;;;7.37;;
3573;SDS011;1801;51.050;6.246;2023-04-24T05:04:35;11.87;;;7.17;;
3573;SDS011;1801;51.050;6.246;2023-04-24T05:07:01;10.50;;;6.23;;
3573;SDS011;1801;51.050;6.246;2023-04-24T05:09:26;12.20;;;6.40;;
3573;SDS011;1801;51.050;6.246;2023-04-24T05:11:52;11.53;;;6.67;;
3573;SDS011;1801;51.050;6.246;2023-04-24T05:14:17;10.30;;;5.97;;
3573;SDS011;1801;51.050;6.246;2023-04-24T05:16:43;10.25;;;6.50;;
3573;SDS011;1801;51.050;6.246;2023-04-24T05:19:09;15.50;;;5.77;;
3573;SDS011;1801;51.050;6.246;2023-04-24T05:21:35;14.52;;;5.88;;
3573;SDS011;1801;51.050;6.246;2023-04-24T05:24:00;10.67;;;5.67;;
3573;SDS011;1801;51.050;6.246;2023-04-24T05:26:26;15.27;;;5.47;;
3573;SDS011;1801;51.050;6.246;2023-04-24T05:28:51;8.67;;;4.87;;
3573;SDS011;1801;51.050;6.246;2023-04-24T05:31:16;6.83;;;3.80;;
3573;SDS011;1801;51.050;6.246;2023-04-24T05:33:42;13.75;;;4.70;;
3573;SDS011;1801;51.050;6.246;2023-04-24T05:36:08;6.90;;;4.20;;
3573;SDS011;1801;51.050;6.246;2023-04-24T05:38:33;12.40;;;5.07;;
3573;SDS011;1801;51.050;6.246;2023-04-24T05:40:58;11.87;;;5.27;;
3573;SDS011;1801;51.050;6.246;2023-04-24T05:43:23;11.00;;;4.87;;
3573;SDS011;1801;51.050;6.246;2023-04-24T05:45:48;8.10;;;5.13;;
3573;SDS011;1801;51.050;6.246;2023-04-24T05:48:14;5.83;;;3.37;;
3573;SDS011;1801;51.050;6.246;2023-04-24T05:50:39;10.57;;;5.93;;
3573;SDS011;1801;51.050;6.246;2023-04-24T05:53:05;6.10;;;3.90;;
3573;SDS011;1801;51.050;6.246;2023-04-24T05:55:31;6.05;;;3.30;;
3573;SDS011;1801;51.050;6.246;2023-04-24T05:57:57;7.53;;;3.67;;
3573;SDS011;1801;51.050;6.246;2023-04-24T06:00:23;5.40;;;3.60;;
3573;SDS011;1801;51.050;6.246;2023-04-24T06:02:48;7.35;;;4.50;;
3573;SDS011;1801;51.050;6.246;2023-04-24T06:05:13;15.63;;;6.27;;
3573;SDS011;1801;51.050;6.246;2023-04-24T06:07:39;11.80;;;4.93;;
3573;SDS011;1801;51.050;6.246;2023-04-24T06:10:05;8.63;;;4.77;;
3573;SDS011;1801;51.050;6.246;2023-04-24T06:12:30;9.33;;;5.17;;
3573;SDS011;1801;51.050;6.246;2023-04-24T06:14:56;7.03;;;3.63;;
3573;SDS011;1801;51.050;6.246;2023-04-24T06:17:21;8.97;;;3.60;;
3573;SDS011;1801;51.050;6.246;2023-04-24T06:19:46;3.43;;;2.70;;
3573;SDS011;1801;51.050;6.246;2023-04-24T06:22:12;4.80;;;3.03;;
3573;SDS011;1801;51.050;6.246;2023-04-24T06:24:37;9.27;;;5.17;;
3573;SDS011;1801;51.050;6.246;2023-04-24T06:27:02;6.43;;;3.73;;
3573;SDS011;1801;51.050;6.246;2023-04-24T06:29:27;8.33;;;3.53;;
3573;SDS011;1801;51.050;6.246;2023-04-24T06:31:52;3.67;;;2.40;;
3573;SDS011;1801;51.050;6.246;2023-04-24T06:34:18;7.70;;;3.23;;
3573;SDS011;1801;51.050;6.246;2023-04-24T06:36:43;5.80;;;3.40;;
3573;SDS011;1801;51.050;6.246;2023-04-24T06:39:08;1.80;;;1.63;;
3573;SDS011;1801;51.050;6.246;2023-04-24T06:41:34;2.47;;;2.27;;
3573;SDS011;1801;51.050;6.246;2023-04-24T06:43:59;1.60;;;1.20;;
3573;SDS011;1801;51.050;6.246;2023-04-24T06:46:24;5.57;;;2.40;;
3573;SDS011;1801;51.050;6.246;2023-04-24T06:48:51;6.20;;;1.75;;
3573;SDS011;1801;51.050;6.246;2023-04-24T06:51:16;5.40;;;2.90;;
3573;SDS011;1801;51.050;6.246;2023-04-24T06:53:43;2.70;;;2.22;;
3573;SDS011;1801;51.050;6.246;2023-04-24T06:56:08;4.30;;;1.97;;
3573;SDS011;1801;51.050;6.246;2023-04-24T06:58:33;3.70;;;2.67;;
3573;SDS011;1801;51.050;6.246;2023-04-24T07:00:58;2.07;;;1.73;;
3573;SDS011;1801;51.050;6.246;2023-04-24T07:03:23;3.20;;;2.27;;
3573;SDS011;1801;51.050;6.246;2023-04-24T07:05:49;5.13;;;2.80;;
3573;SDS011;1801;51.050;6.246;2023-04-24T07:08:14;2.77;;;1.93;;
3573;SDS011;1801;51.050;6.246;2023-04-24T07:10:42;4.25;;;2.45;;
3573;SDS011;1801;51.050;6.246;2023-04-24T07:13:07;5.47;;;3.30;;
3573;SDS011;1801;51.050;6.246;2023-04-24T07:15:33;4.93;;;2.28;;
3573;SDS011;1801;51.050;6.246;2023-04-24T07:17:59;3.70;;;2.50;;
3573;SDS011;1801;51.050;6.246;2023-04-24T07:20:24;2.10;;;1.57;;
3573;SDS011;1801;51.050;6.246;2023-04-24T07:22:49;1.20;;;1.10;;
3573;SDS011;1801;51.050;6.246;2023-04-24T07:25:14;3.77;;;1.60;;
3573;SDS011;1801;51.050;6.246;2023-04-24T07:27:40;2.10;;;1.47;;
3573;SDS011;1801;51.050;6.246;2023-04-24T07:30:05;4.77;;;1.90;;
3573;SDS011;1801;51.050;6.246;2023-04-24T07:32:31;7.95;;;4.18;;
3573;SDS011;1801;51.050;6.246;2023-04-24T07:34:57;6.00;;;3.33;;
3573;SDS011;1801;51.050;6.246;2023-04-24T07:37:22;8.47;;;4.53;;
3573;SDS011;1801;51.050;6.246;2023-04-24T07:39:48;9.27;;;4.33;;
3573;SDS011;1801;51.050;6.246;2023-04-24T07:42:13;3.43;;;2.73;;
3573;SDS011;1801;51.050;6.246;2023-04-24T07:44:38;4.03;;;2.60;;
3573;SDS011;1801;51.050;6.246;2023-04-24T07:47:03;4.77;;;2.00;;
3573;SDS011;1801;51.050;6.246;2023-04-24T07:49:28;4.60;;;2.20;;
3573;SDS011;1801;51.050;6.246;2023-04-24T07:51:54;8.00;;;2.47;;
3573;SDS011;1801;51.050;6.246;2023-04-24T07:54:19;2.37;;;2.00;;
3573;SDS011;1801;51.050;6.246;2023-04-24T07:56:44;5.87;;;2.63;;
3573;SDS011;1801;51.050;6.246;2023-04-24T07:59:10;3.13;;;2.23;;
3573;SDS011;1801;51.050;6.246;2023-04-24T08:01:35;5.73;;;2.60;;
3573;SDS011;1801;51.050;6.246;2023-04-24T08:04:01;6.40;;;2.33;;
3573;SDS011;1801;51.050;6.246;2023-04-24T08:06:26;4.70;;;2.37;;
3573;SDS011;1801;51.050;6.246;2023-04-24T08:08:55;4.15;;;2.53;;
3573;SDS011;1801;51.050;6.246;2023-04-24T08:11:20;5.20;;;2.20;;
3573;SDS011;1801;51.050;6.246;2023-04-24T08:13:45;4.60;;;3.10;;
3573;SDS011;1801;51.050;6.246;2023-04-24T08:16:10;10.00;;;2.80;;
3573;SDS011;1801;51.050;6.246;2023-04-24T08:18:36;4.03;;;2.77;;
3573;SDS011;1801;51.050;6.246;2023-04-24T08:21:01;6.00;;;3.10;;
3573;SDS011;1801;51.050;6.246;2023-04-24T08:23:26;8.70;;;4.17;;
3573;SDS011;1801;51.050;6.246;2023-04-24T08:25:52;7.07;;;4.50;;
3573;SDS011;1801;51.050;6.246;2023-04-24T08:28:17;11.77;;;4.80;;
3573;SDS011;1801;51.050;6.246;2023-04-24T08:30:45;4.97;;;3.13;;
3573;SDS011;1801;51.050;6.246;2023-04-24T08:33:10;8.07;;;3.67;;
3573;SDS011;1801;51.050;6.246;2023-04-24T08:35:35;7.23;;;3.90;;
3573;SDS011;1801;51.050;6.246;2023-04-24T08:38:01;12.07;;;5.80;;
3573;SDS011;1801;51.050;6.246;2023-04-24T08:40:27;10.60;;;5.77;;
3573;SDS011;1801;51.050;6.246;2023-04-24T08:42:54;15.27;;;5.80;;
3573;SDS011;1801;51.050;6.246;2023-04-24T08:45:21;7.18;;;3.45;;
3573;SDS011;1801;51.050;6.246;2023-04-24T08:47:46;8.33;;;3.90;;
3573;SDS011;1801;51.050;6.246;2023-04-24T08:50:12;9.30;;;4.80;;
3573;SDS011;1801;51.050;6.246;2023-04-24T08:52:37;10.73;;;4.13;;
3573;SDS011;1801;51.050;6.246;2023-04-24T08:55:03;8.30;;;4.63;;
3573;SDS011;1801;51.050;6.246;2023-04-24T08:57:28;14.23;;;6.03;;
3573;SDS011;1801;51.050;6.246;2023-04-24T08:59:54;20.67;;;6.37;;
3573;SDS011;1801;51.050;6.246;2023-04-24T09:02:19;13.83;;;6.80;;
3573;SDS011;1801;51.050;6.246;2023-04-24T09:04:45;10.97;;;6.30;;
3573;SDS011;1801;51.050;6.246;2023-04-24T09:07:12;9.70;;;5.10;;
3573;SDS011;1801;51.050;6.246;2023-04-24T09:09:37;10.53;;;5.83;;
3573;SDS011;1801;51.050;6.246;2023-04-24T09:12:03;11.50;;;5.00;;
3573;SDS011;1801;51.050;6.246;2023-04-24T09:14:28;11.73;;;5.00;;
3573;SDS011;1801;51.050;6.246;2023-04-24T09:16:56;11.05;;;6.10;;
3573;SDS011;1801;51.050;6.246;2023-04-24T09:19:21;16.53;;;6.43;;
3573;SDS011;1801;51.050;6.246;2023-04-24T09:21:47;14.93;;;5.73;;
3573;SDS011;1801;51.050;6.246;2023-04-24T09:24:16;12.80;;;6.50;;
3573;SDS011;1801;51.050;6.246;2023-04-24T09:26:47;14.20;;;6.68;;
3573;SDS011;1801;51.050;6.246;2023-04-24T09:29:16;9.10;;;4.43;;
3573;SDS011;1801;51.050;6.246;2023-04-24T09:31:42;9.25;;;4.32;;
3573;SDS011;1801;51.050;6.246;2023-04-24T09:34:07;9.50;;;5.50;;
3573;SDS011;1801;51.050;6.246;2023-04-24T09:36:33;12.70;;;5.23;;
3573;SDS011;1801;51.050;6.246;2023-04-24T09:38:59;12.05;;;4.50;;
3573;SDS011;1801;51.050;6.246;2023-04-24T09:41:24;13.50;;;4.43;;
3573;SDS011;1801;51.050;6.246;2023-04-24T09:43:50;5.90;;;3.63;;
3573;SDS011;1801;51.050;6.246;2023-04-24T09:46:15;9.30;;;4.47;;
3573;SDS011;1801;51.050;6.246;2023-04-24T09:48:43;11.40;;;4.30;;
3573;SDS011;1801;51.050;6.246;2023-04-24T09:51:08;7.33;;;2.60;;
3573;SDS011;1801;51.050;6.246;2023-04-24T09:53:36;9.07;;;4.10;;
3573;SDS011;1801;51.050;6.246;2023-04-24T09:56:02;13.80;;;4.33;;
3573;SDS011;1801;51.050;6.246;2023-04-24T09:58:28;11.83;;;5.27;;
3573;SDS011;1801;51.050;6.246;2023-04-24T10:00:54;11.45;;;6.55;;
3573;SDS011;1801;51.050;6.246;2023-04-24T10:03:20;9.40;;;4.80;;
3573;SDS011;1801;51.050;6.246;2023-04-24T10:05:46;10.83;;;4.30;;
3573;SDS011;1801;51.050;6.246;2023-04-24T10:08:11;6.18;;;3.25;;
3573;SDS011;1801;51.050;6.246;2023-04-24T10:10:43;6.20;;;4.10;;
3573;SDS011;1801;51.050;6.246;2023-04-24T10:13:09;11.17;;;4.70;;
3573;SDS011;1801;51.050;6.246;2023-04-24T10:15:35;12.10;;;4.90;;
3573;SDS011;1801;51.050;6.246;2023-04-24T10:18:00;10.73;;;5.30;;
3573;SDS011;1801;51.050;6.246;2023-04-24T10:20:28;8.70;;;3.67;;
3573;SDS011;1801;51.050;6.246;2023-04-24T10:22:56;11.70;;;3.53;;
3573;SDS011;1801;51.050;6.246;2023-04-24T10:25:22;8.93;;;4.20;;
3573;SDS011;1801;51.050;6.246;2023-04-24T10:27:48;8.43;;;3.93;;
3573;SDS011;1801;51.050;6.246;2023-04-24T10:30:14;12.67;;;4.40;;
3573;SDS011;1801;51.050;6.246;2023-04-24T10:32:40;7.03;;;3.80;;
3573;SDS011;1801;51.050;6.246;2023-04-24T10:35:09;9.67;;;5.00;;
3573;SDS011;1801;51.050;6.246;2023-04-24T10:37:39;9.73;;;3.17;;
3573;SDS011;1801;51.050;6.246;2023-04-24T10:40:06;8.83;;;3.63;;
3573;SDS011;1801;51.050;6.246;2023-04-24T10:42:32;19.73;;;5.53;;
3573;SDS011;1801;51.050;6.246;2023-04-24T10:44:58;7.43;;;3.53;;
3573;SDS011;1801;51.050;6.246;2023-04-24T10:47:23;10.33;;;3.30;;
3573;SDS011;1801;51.050;6.246;2023-04-24T10:49:50;11.77;;;4.53;;
3573;SDS011;1801;51.050;6.246;2023-04-24T10:52:15;10.17;;;3.73;;
3573;SDS011;1801;51.050;6.246;2023-04-24T10:54:45;8.53;;;3.80;;
3573;SDS011;1801;51.050;6.246;2023-04-24T10:59:48;7.87;;;3.13;;
3573;SDS011;1801;51.050;6.246;2023-04-24T11:02:14;5.97;;;3.93;;
3573;SDS011;1801;51.050;6.246;2023-04-24T11:04:40;5.80;;;3.00;;
3573;SDS011;1801;51.050;6.246;2023-04-24T11:07:06;8.93;;;3.10;;
3573;SDS011;1801;51.050;6.246;2023-04-24T11:09:31;10.80;;;4.47;;
3573;SDS011;1801;51.050;6.246;2023-04-24T11:12:06;8.17;;;3.70;;
3573;SDS011;1801;51.050;6.246;2023-04-24T11:20:16;9.40;;;4.50;;
3573;SDS011;1801;51.050;6.246;2023-04-24T11:22:42;15.73;;;4.53;;
3573;SDS011;1801;51.050;6.246;2023-04-24T11:25:08;13.00;;;4.40;;
3573;SDS011;1801;51.050;6.246;2023-04-24T11:27:39;8.47;;;4.50;;
3573;SDS011;1801;51.050;6.246;2023-04-24T11:30:05;13.93;;;5.03;;
3573;SDS011;1801;51.050;6.246;2023-04-24T11:37:39;17.87;;;5.07;;
3573;SDS011;1801;51.050;6.246;2023-04-24T11:40:06;14.60;;;5.43;;
3573;SDS011;1801;51.050;6.246;2023-04-24T11:42:35;13.50;;;4.80;;
3573;SDS011;1801;51.050;6.246;2023-04-24T11:45:00;19.03;;;5.33;;
3573;SDS011;1801;51.050;6.246;2023-04-24T11:47:27;8.70;;;4.33;;
3573;SDS011;1801;51.050;6.246;2023-04-24T11:49:52;15.43;;;5.10;;
3573;SDS011;1801;51.050;6.246;2023-04-24T11:52:18;13.43;;;6.80;;
3573;SDS011;1801;51.050;6.246;2023-04-24T11:54:47;11.80;;;4.63;;
3573;SDS011;1801;51.050;6.246;2023-04-24T11:57:13;9.43;;;4.50;;
3573;SDS011;1801;51.050;6.246;2023-04-24T11:59:38;8.90;;;3.60;;
3573;SDS011;1801;51.050;6.246;2023-04-24T12:02:03;16.47;;;4.87;;
3573;SDS011;1801;51.050;6.246;2023-04-24T12:04:37;6.60;;;3.30;;
3573;SDS011;1801;51.050;6.246;2023-04-24T12:07:03;14.83;;;3.97;;
3573;SDS011;1801;51.050;6.246;2023-04-24T12:09:28;8.40;;;4.03;;
3573;SDS011;1801;51.050;6.246;2023-04-24T12:11:54;13.90;;;4.40;;
3573;SDS011;1801;51.050;6.246;2023-04-24T12:14:22;4.77;;;2.70;;
3573;SDS011;1801;51.050;6.246;2023-04-24T12:16:48;9.83;;;4.20;;
3573;SDS011;1801;51.050;6.246;2023-04-24T12:19:17;14.30;;;3.37;;
3573;SDS011;1801;51.050;6.246;2023-04-24T12:21:43;12.10;;;3.80;;
3573;SDS011;1801;51.050;6.246;2023-04-24T12:24:08;3.77;;;2.43;;
3573;SDS011;1801;51.050;6.246;2023-04-24T12:26:33;8.97;;;3.10;;
3573;SDS011;1801;51.050;6.246;2023-04-24T12:29:01;7.43;;;3.20;;
3573;SDS011;1801;51.050;6.246;2023-04-24T12:31:26;6.60;;;2.90;;
3573;SDS011;1801;51.050;6.246;2023-04-24T12:33:54;6.77;;;3.43;;
3573;SDS011;1801;51.050;6.246;2023-04-24T12:36:20;11.57;;;3.50;;
3573;SDS011;1801;51.050;6.246;2023-04-24T12:38:46;9.73;;;3.23;;
3573;SDS011;1801;51.050;6.246;2023-04-24T12:41:12;4.70;;;3.10;;
3573;SDS011;1801;51.050;6.246;2023-04-24T12:43:37;6.93;;;2.93;;
3573;SDS011;1801;51.050;6.246;2023-04-24T12:46:03;6.73;;;2.60;;
3573;SDS011;1801;51.050;6.246;2023-04-24T12:48:29;7.20;;;3.30;;
3573;SDS011;1801;51.050;6.246;2023-04-24T12:50:58;16.10;;;3.40;;
3573;SDS011;1801;51.050;6.246;2023-04-24T12:53:26;6.37;;;2.70;;
3573;SDS011;1801;51.050;6.246;2023-04-24T12:55:51;9.13;;;4.30;;
3573;SDS011;1801;51.050;6.246;2023-04-24T12:58:20;9.60;;;3.60;;
3573;SDS011;1801;51.050;6.246;2023-04-24T13:00:46;7.43;;;3.50;;
3573;SDS011;1801;51.050;6.246;2023-04-24T13:03:11;7.23;;;3.40;;
3573;SDS011;1801;51.050;6.246;2023-04-24T13:05:36;7.37;;;3.27;;
3573;SDS011;1801;51.050;6.246;2023-04-24T13:08:02;10.87;;;3.83;;
3573;SDS011;1801;51.050;6.246;2023-04-24T13:10:27;10.60;;;3.53;;
3573;SDS011;1801;51.050;6.246;2023-04-24T13:12:52;10.00;;;3.10;;
3573;SDS011;1801;51.050;6.246;2023-04-24T13:15:17;15.23;;;3.87;;
3573;SDS011;1801;51.050;6.246;2023-04-24T13:17:42;7.60;;;3.57;;
3573;SDS011;1801;51.050;6.246;2023-04-24T13:20:08;6.87;;;3.60;;
3573;SDS011;1801;51.050;6.246;2023-04-24T13:22:33;7.80;;;3.13;;
3573;SDS011;1801;51.050;6.246;2023-04-24T13:24:58;6.70;;;3.20;;
3573;SDS011;1801;51.050;6.246;2023-04-24T13:27:24;13.40;;;3.60;;
3573;SDS011;1801;51.050;6.246;2023-04-24T13:29:49;7.90;;;3.67;;
3573;SDS011;1801;51.050;6.246;2023-04-24T13:32:14;4.47;;;3.17;;
3573;SDS011;1801;51.050;6.246;2023-04-24T13:34:40;4.17;;;3.00;;
3573;SDS011;1801;51.050;6.246;2023-04-24T13:37:05;8.33;;;2.37;;
3573;SDS011;1801;51.050;6.246;2023-04-24T13:39:30;8.03;;;2.90;;
3573;SDS011;1801;51.050;6.246;2023-04-24T13:41:56;5.00;;;3.00;;
3573;SDS011;1801;51.050;6.246;2023-04-24T13:44:22;10.57;;;3.17;;
3573;SDS011;1801;51.050;6.246;2023-04-24T13:46:48;7.70;;;2.90;;
3573;SDS011;1801;51.050;6.246;2023-04-24T13:49:13;8.57;;;3.40;;
3573;SDS011;1801;51.050;6.246;2023-04-24T13:51:39;4.70;;;2.90;;
3573;SDS011;1801;51.050;6.246;2023-04-24T13:54:05;8.70;;;2.87;;
3573;SDS011;1801;51.050;6.246;2023-04-24T13:56:30;6.80;;;3.10;;
3573;SDS011;1801;51.050;6.246;2023-04-24T13:58:55;4.17;;;2.87;;
3573;SDS011;1801;51.050;6.246;2023-04-24T14:01:20;4.87;;;2.80;;
3573;SDS011;1801;51.050;6.246;2023-04-24T14:03:49;5.73;;;3.10;;
3573;SDS011;1801;51.050;6.246;2023-04-24T14:06:15;7.30;;;2.67;;
3573;SDS011;1801;51.050;6.246;2023-04-24T14:08:40;8.13;;;3.63;;
3573;SDS011;1801;51.050;6.246;2023-04-24T14:11:05;4.13;;;3.17;;
3573;SDS011;1801;51.050;6.246;2023-04-24T14:13:31;9.93;;;3.70;;
3573;SDS011;1801;51.050;6.246;2023-04-24T14:15:56;4.60;;;2.93;;
3573;SDS011;1801;51.050;6.246;2023-04-24T14:18:21;9.80;;;2.97;;
3573;SDS011;1801;51.050;6.246;2023-04-24T14:20:46;4.80;;;2.97;;
3573;SDS011;1801;51.050;6.246;2023-04-24T14:23:12;6.43;;;3.50;;
3573;SDS011;1801;51.050;6.246;2023-04-24T14:25:37;12.00;;;3.37;;
3573;SDS011;1801;51.050;6.246;2023-04-24T14:28:02;3.90;;;3.10;;
3573;SDS011;1801;51.050;6.246;2023-04-24T14:30:27;14.20;;;3.63;;
3573;SDS011;1801;51.050;6.246;2023-04-24T14:32:52;9.67;;;3.53;;
3573;SDS011;1801;51.050;6.246;2023-04-24T14:35:18;5.90;;;3.13;;
3573;SDS011;1801;51.050;6.246;2023-04-24T14:37:43;6.30;;;2.70;;
3573;SDS011;1801;51.050;6.246;2023-04-24T14:40:09;7.00;;;3.67;;
3573;SDS011;1801;51.050;6.246;2023-04-24T14:42:34;8.70;;;2.73;;
3573;SDS011;1801;51.050;6.246;2023-04-24T14:45:00;4.00;;;3.30;;
3573;SDS011;1801;51.050;6.246;2023-04-24T14:47:25;7.90;;;2.80;;
3573;SDS011;1801;51.050;6.246;2023-04-24T14:49:51;5.77;;;2.90;;
3573;SDS011;1801;51.050;6.246;2023-04-24T14:52:16;5.13;;;2.40;;
3573;SDS011;1801;51.050;6.246;2023-04-24T14:54:42;5.37;;;2.87;;
3573;SDS011;1801;51.050;6.246;2023-04-24T14:57:07;4.80;;;2.07;;
3573;SDS011;1801;51.050;6.246;2023-04-24T14:59:32;2.83;;;2.40;;
3573;SDS011;1801;51.050;6.246;2023-04-24T15:01:58;7.20;;;2.90;;
3573;SDS011;1801;51.050;6.246;2023-04-24T15:04:23;4.73;;;2.43;;
3573;SDS011;1801;51.050;6.246;2023-04-24T15:06:50;2.97;;;2.37;;
3573;SDS011;1801;51.050;6.246;2023-04-24T15:09:15;2.27;;;2.07;;
3573;SDS011;1801;51.050;6.246;2023-04-24T15:11:40;7.40;;;2.57;;